Airport ID:KSMD
Update Time (UTC):28/01/2023 23:58
Wind Speed (Knots):7
Wind Direction (Magnetic):60
Temperature (°C):-1.7
Dew Point (°C):-4.8
Humidity (%):79.3
Altimeter (inHg):30.12
Density Altitude (Feet):
Visibility (Miles):10
Clouds (Hundreds of feet):FEW055
Present Weather:
METAR:METAR KSMD 282355Z AUTO 06008KT 10SM FEW055 M02/M05 A3012 RMK A01

The data displayed is for advisory purposes only and is not to be used for flight planning or operations.